Time;durP1;ratioP1;P1;durP2;ratioP2;P2;SDS_P1;SDS_P2;PMS_P1;PMS_P2;Temp;Humidity;BMP_temperature;BMP_pressure;BME280_temperature;BME280_humidity;BME280_pressure;Samples;Min_cycle;Max_cycle;Signal;HPM_P1;HPM_P2
2022/01/01 00:02:02;;;;;;;9.27;7.32;;;;;;;19.44;30.00;97748.53;5122845;27;20740;-68
2022/01/01 00:04:28;;;;;;;7.97;6.38;;;;;;;19.46;30.02;97754.50;5120743;27;20031;-69
2022/01/01 00:06:53;;;;;;;7.43;5.80;;;;;;;19.50;29.73;97752.19;5130114;27;20401;-72
2022/01/01 00:09:19;;;;;;;7.68;6.38;;;;;;;19.52;29.56;97745.53;5132429;27;20127;-68
2022/01/01 00:11:44;;;;;;;8.05;5.95;;;;;;;19.56;29.56;97747.78;5131408;27;20486;-68
2022/01/01 00:14:10;;;;;;;8.20;6.80;;;;;;;19.56;29.57;97743.22;5133335;27;20034;-67
2022/01/01 00:16:35;;;;;;;7.65;6.60;;;;;;;19.59;29.48;97739.28;5130371;27;20110;-66
2022/01/01 00:19:01;;;;;;;7.45;6.18;;;;;;;19.60;29.50;97732.88;5131447;27;20074;-67
2022/01/01 00:21:27;;;;;;;7.28;5.93;;;;;;;19.61;29.55;97729.97;5133307;27;20160;-68
2022/01/01 00:23:52;;;;;;;7.97;5.63;;;;;;;19.62;29.37;97736.16;5132658;27;20038;-68
2022/01/01 00:26:18;;;;;;;6.93;5.93;;;;;;;19.61;29.64;97729.16;5129811;27;20580;-67
2022/01/01 00:28:44;;;;;;;6.20;5.60;;;;;;;19.64;29.56;97736.75;5113723;27;20447;-68
2022/01/01 00:31:10;;;;;;;7.07;5.88;;;;;;;19.64;29.68;97726.84;5133884;27;20043;-69
2022/01/01 00:33:35;;;;;;;7.57;6.20;;;;;;;19.66;29.64;97734.66;5118793;27;20038;-70
2022/01/01 00:36:01;;;;;;;8.30;6.05;;;;;;;19.66;29.48;97726.59;5126405;27;20464;-68
2022/01/01 00:38:27;;;;;;;8.02;5.80;;;;;;;19.67;29.68;97725.56;5131828;27;20126;-67
2022/01/01 00:40:52;;;;;;;6.80;5.45;;;;;;;19.66;29.74;97719.41;5133626;27;20031;-68
2022/01/01 00:43:18;;;;;;;6.25;5.53;;;;;;;19.67;29.80;97718.34;5134055;27;20118;-69
2022/01/01 00:45:43;;;;;;;7.05;5.25;;;;;;;19.75;29.78;97716.41;5133531;27;20039;-67
2022/01/01 00:48:09;;;;;;;6.90;5.55;;;;;;;19.83;29.50;97708.84;5124029;27;20468;-66
2022/01/01 00:50:34;;;;;;;7.63;5.30;;;;;;;19.94;29.58;97715.38;5116211;27;20047;-66
2022/01/01 00:53:01;;;;;;;6.70;4.88;;;;;;;20.01;29.53;97704.53;5125461;27;20027;-66
2022/01/01 00:55:27;;;;;;;6.32;4.68;;;;;;;20.06;29.60;97707.38;5133564;27;20099;-67
2022/01/01 00:57:52;;;;;;;12.68;5.95;;;;;;;20.07;30.94;97708.97;5130957;27;20058;-66
2022/01/01 01:00:18;;;;;;;8.82;5.93;;;;;;;20.11;32.13;97715.53;5122224;27;20099;-66
2022/01/01 01:02:43;;;;;;;8.18;5.85;;;;;;;20.13;32.44;97710.78;5114575;28;20118;-65
2022/01/01 01:05:09;;;;;;;8.27;6.00;;;;;;;20.16;32.66;97714.84;5124160;27;20385;-66
2022/01/01 01:07:35;;;;;;;7.57;5.70;;;;;;;20.18;32.98;97709.28;5114366;28;20057;-65
2022/01/01 01:10:01;;;;;;;6.28;5.55;;;;;;;20.18;33.18;97704.72;5105889;28;20493;-65
2022/01/01 01:12:37;;;;;;;8.00;5.80;;;;;;;20.19;33.37;97700.19;5126630;27;20040;-65
2022/01/01 01:15:03;;;;;;;8.15;5.93;;;;;;;20.19;33.46;97695.59;5115873;27;20114;-67
2022/01/01 01:17:29;;;;;;;7.05;5.43;;;;;;;20.19;33.69;97692.13;5126360;27;20451;-65
2022/01/01 01:19:55;;;;;;;6.78;5.13;;;;;;;20.19;33.58;97689.44;5124720;28;20082;-66
2022/01/01 01:22:20;;;;;;;5.82;4.95;;;;;;;20.20;33.53;97691.06;5118245;28;20140;-66
2022/01/01 01:24:46;;;;;;;7.93;5.25;;;;;;;20.19;33.61;97687.56;5133201;28;20034;-64
2022/01/01 01:27:11;;;;;;;7.53;6.00;;;;;;;20.20;33.58;97691.06;5123517;28;20040;-66
2022/01/01 01:29:41;;;;;;;5.82;4.95;;;;;;;20.20;33.65;97691.88;5125301;27;20038;-66
2022/01/01 01:32:07;;;;;;;9.90;5.35;;;;;;;20.21;33.57;97690.84;5133761;27;20081;-66
2022/01/01 01:34:33;;;;;;;6.53;5.00;;;;;;;20.23;33.44;97691.44;5116605;27;20486;-66
2022/01/01 01:36:58;;;;;;;7.15;5.00;;;;;;;20.23;33.58;97690.59;5126049;27;20035;-66
2022/01/01 01:39:24;;;;;;;6.50;4.70;;;;;;;20.23;33.50;97693.28;5137611;27;20496;-67
2022/01/01 01:41:52;;;;;;;6.03;4.50;;;;;;;20.22;33.49;97688.97;5134472;27;20533;-65
2022/01/01 01:44:33;;;;;;;6.22;4.50;;;;;;;20.22;33.16;97686.28;5132572;27;20035;-66
2022/01/01 01:47:02;;;;;;;6.97;4.90;;;;;;;20.20;33.32;97691.88;5136207;27;20046;-66
2022/01/01 01:49:29;;;;;;;5.88;4.53;;;;;;;20.20;33.25;97686.50;5132980;27;20039;-65
2022/01/01 01:51:55;;;;;;;5.68;4.60;;;;;;;20.21;33.37;97681.97;5136904;27;20500;-65
2022/01/01 01:54:21;;;;;;;4.18;3.78;;;;;;;20.20;33.33;97681.13;5136409;27;20061;-64
2022/01/01 01:56:47;;;;;;;5.50;4.18;;;;;;;20.20;33.39;97683.03;5134568;27;20055;-66
2022/01/01 01:59:14;;;;;;;4.82;3.95;;;;;;;20.22;33.32;97686.28;5136650;27;20066;-66
2022/01/01 02:01:40;;;;;;;5.07;4.18;;;;;;;20.22;33.29;97675.56;5134013;27;20556;-65
2022/01/01 02:04:06;;;;;;;5.35;4.05;;;;;;;20.22;33.25;97680.94;5136841;27;20027;-65
2022/01/01 02:06:32;;;;;;;4.82;3.47;;;;;;;20.21;33.28;97672.03;5135324;27;20469;-65
2022/01/01 02:08:58;;;;;;;5.40;4.13;;;;;;;20.22;33.06;97676.38;5116502;27;20023;-66
2022/01/01 02:11:24;;;;;;;4.07;3.67;;;;;;;20.21;33.09;97680.09;5115898;28;20452;-66
2022/01/01 02:18:50;;;;;;;4.95;3.78;;;;;;;20.20;32.92;97681.13;5135996;27;20043;-64
2022/01/01 02:21:17;;;;;;;3.83;3.33;;;;;;;20.20;33.02;97678.44;5116566;27;20122;-65
2022/01/01 02:23:44;;;;;;;4.88;3.78;;;;;;;20.21;32.92;97679.28;5116483;27;20027;-65
2022/01/01 02:26:12;;;;;;;4.47;3.55;;;;;;;20.22;32.88;97672.88;5126609;27;20130;-66
2022/01/01 02:28:44;;;;;;;3.55;3.10;;;;;;;20.22;33.00;97684.41;5128256;27;20049;-66
2022/01/01 02:31:10;;;;;;;4.72;3.63;;;;;;;20.23;32.72;97680.69;5129671;27;20106;-66
2022/01/01 02:33:37;;;;;;;4.10;3.10;;;;;;;20.23;32.84;97675.31;5130263;27;20034;-66
2022/01/01 02:36:04;;;;;;;4.18;2.70;;;;;;;20.24;32.73;97676.13;5135674;27;20058;-68
2022/01/01 02:38:32;;;;;;;4.38;3.28;;;;;;;20.24;32.72;97676.13;5130553;27;20027;-67
2022/01/01 02:40:58;;;;;;;3.67;2.83;;;;;;;20.23;32.73;97678.00;5128455;27;20038;-66
2022/01/01 02:43:25;;;;;;;3.45;2.83;;;;;;;20.14;31.84;97674.03;5120965;27;20036;-66
2022/01/01 02:45:50;;;;;;;4.13;3.13;;;;;;;19.87;31.83;97679.72;5126350;27;20126;-65
2022/01/01 02:48:16;;;;;;;4.53;3.30;;;;;;;19.65;31.65;97674.00;5117323;27;20110;-67
2022/01/01 02:50:42;;;;;;;4.03;2.90;;;;;;;19.46;31.58;97671.34;5133498;27;20039;-64
2022/01/01 02:53:14;;;;;;;3.75;2.75;;;;;;;19.31;31.56;97670.91;5135434;27;20019;-68
2022/01/01 02:55:41;;;;;;;3.95;3.00;;;;;;;19.15;31.74;97674.97;5135881;27;20039;-67
2022/01/01 02:58:08;;;;;;;3.72;3.13;;;;;;;18.94;32.13;97673.50;5132357;27;20035;-65
2022/01/01 03:00:34;;;;;;;4.43;2.72;;;;;;;18.78;32.39;97673.03;5135709;27;20033;-64
2022/01/01 03:02:59;;;;;;;3.67;2.65;;;;;;;18.63;32.75;97668.03;5122598;27;20036;-72
2022/01/01 03:05:25;;;;;;;5.07;3.22;;;;;;;18.51;32.70;97675.13;5125940;27;20063;-65
2022/01/01 03:07:51;;;;;;;7.30;2.92;;;;;;;18.43;33.00;97668.19;5131252;27;20106;-63
2022/01/01 03:10:16;;;;;;;4.35;2.75;;;;;;;18.36;33.03;97668.25;5134861;27;20034;-65
2022/01/01 03:12:42;;;;;;;6.65;2.75;;;;;;;18.35;33.35;97660.41;5133971;27;20030;-65
2022/01/01 03:15:08;;;;;;;4.07;2.83;;;;;;;18.52;33.73;97669.53;5135410;27;20393;-64
2022/01/01 03:17:33;;;;;;;6.18;2.55;;;;;;;18.79;33.69;97676.53;5129362;27;20031;-65
2022/01/01 03:19:59;;;;;;;3.08;1.98;;;;;;;19.00;33.55;97664.63;5131719;27;20083;-65
2022/01/01 03:22:24;;;;;;;3.42;2.60;;;;;;;19.16;33.54;97664.06;5134050;27;20024;-65
2022/01/01 03:24:50;;;;;;;4.50;2.53;;;;;;;19.29;33.44;97664.94;5134337;27;20387;-64
2022/01/01 03:27:16;;;;;;;5.03;2.53;;;;;;;19.42;33.26;97663.94;5131825;27;20070;-64
2022/01/01 03:29:41;;;;;;;3.97;2.65;;;;;;;19.50;33.19;97663.66;5132935;27;20508;-65
2022/01/01 03:32:07;;;;;;;2.92;2.25;;;;;;;19.57;33.12;97655.53;5134126;27;20450;-64
2022/01/01 03:34:33;;;;;;;3.83;2.15;;;;;;;19.63;32.93;97654.66;5133764;27;20110;-63
2022/01/01 03:36:58;;;;;;;3.90;2.58;;;;;;;19.68;32.80;97654.78;5134312;27;20071;-64
2022/01/01 03:39:25;;;;;;;3.33;2.00;;;;;;;19.72;32.79;97647.91;5132430;27;20039;-63
2022/01/01 03:41:51;;;;;;;3.55;2.22;;;;;;;19.76;32.65;97648.28;5133924;27;20565;-64
2022/01/01 03:44:17;;;;;;;3.15;1.90;;;;;;;19.79;32.69;97653.19;5133138;27;20118;-64
2022/01/01 03:46:42;;;;;;;3.70;2.00;;;;;;;19.81;32.51;97643.06;5131473;27;20030;-65
2022/01/01 03:49:08;;;;;;;4.32;2.33;;;;;;;19.84;32.71;97661.38;5134105;27;20023;-65
2022/01/01 03:51:33;;;;;;;2.45;1.70;;;;;;;19.86;32.51;97653.91;5118943;27;20027;-65
2022/01/01 03:53:59;;;;;;;2.72;1.95;;;;;;;19.88;32.60;97659.09;5132896;27;20019;-64
2022/01/01 03:56:24;;;;;;;3.92;1.88;;;;;;;19.90;32.65;97654.31;5133739;27;20027;-65
2022/01/01 03:58:50;;;;;;;2.80;2.05;;;;;;;19.91;32.46;97655.97;5133813;27;20489;-65
2022/01/01 04:01:15;;;;;;;3.35;2.17;;;;;;;19.92;32.43;97660.28;5116435;27;20075;-64
2022/01/01 04:03:41;;;;;;;4.50;1.80;;;;;;;19.94;32.23;97659.00;5132836;27;20035;-65
2022/01/01 04:06:07;;;;;;;3.13;2.25;;;;;;;19.95;32.21;97659.81;5133677;27;20058;-65
2022/01/01 04:08:33;;;;;;;3.42;1.90;;;;;;;19.95;32.21;97662.50;5133133;27;20041;-65
2022/01/01 04:10:58;;;;;;;3.63;2.05;;;;;;;19.96;32.10;97664.13;5133096;27;20061;-65
2022/01/01 04:13:24;;;;;;;3.72;2.22;;;;;;;19.95;32.23;97666.00;5120857;27;20039;-65
2022/01/01 04:15:50;;;;;;;2.72;1.75;;;;;;;19.93;32.22;97665.41;5119023;27;20514;-65
2022/01/01 04:18:25;;;;;;;3.33;2.22;;;;;;;19.96;32.06;97666.81;5132592;27;20047;-65
2022/01/01 04:20:51;;;;;;;2.55;1.90;;;;;;;19.95;32.16;97667.84;5117711;27;20039;-65
2022/01/01 04:23:16;;;;;;;3.97;1.92;;;;;;;19.94;32.19;97667.06;5113297;28;20028;-66
2022/01/01 04:25:44;;;;;;;2.95;1.90;;;;;;;19.95;32.18;97665.16;5113019;28;20028;-66
2022/01/01 04:28:09;;;;;;;2.17;1.80;;;;;;;19.95;32.31;97663.31;5121422;27;20126;-64
2022/01/01 04:30:35;;;;;;;3.33;1.98;;;;;;;19.95;32.29;97673.22;5118975;27;20102;-65
2022/01/01 04:33:00;;;;;;;3.38;2.03;;;;;;;19.94;32.31;97672.41;5128946;27;20027;-65
2022/01/01 04:35:27;;;;;;;3.00;1.85;;;;;;;19.94;32.30;97671.59;5133505;27;20027;-64
2022/01/01 04:37:52;;;;;;;3.10;1.77;;;;;;;19.95;32.38;97667.84;5131185;27;20501;-65
2022/01/01 04:40:18;;;;;;;2.38;1.73;;;;;;;19.95;32.38;97662.50;5133346;27;20026;-65
2022/01/01 04:42:43;;;;;;;2.85;1.90;;;;;;;19.95;32.30;97668.69;5123854;27;20558;-64
2022/01/01 04:45:10;;;;;;;2.63;2.08;;;;;;;19.94;32.43;97666.22;5112459;28;20032;-64
2022/01/01 04:47:36;;;;;;;3.33;2.03;;;;;;;19.95;32.25;97665.16;5118084;27;20031;-64
2022/01/01 04:50:03;;;;;;;2.80;1.92;;;;;;;19.95;32.61;97670.53;5124938;27;20038;-64
2022/01/01 04:52:29;;;;;;;3.63;2.10;;;;;;;19.96;32.34;97666.81;5126301;27;20027;-64
2022/01/01 04:54:55;;;;;;;3.65;2.17;;;;;;;19.94;32.43;97672.41;5112325;28;20088;-64
2022/01/01 04:57:24;;;;;;;3.35;2.08;;;;;;;19.96;32.43;97674.88;5118131;27;20034;-64
2022/01/01 04:59:49;;;;;;;3.03;2.05;;;;;;;19.95;32.37;97673.22;5132328;27;20046;-64
2022/01/01 05:02:15;;;;;;;2.92;1.83;;;;;;;19.95;32.41;97667.84;5132602;27;20039;-63
2022/01/01 05:04:41;;;;;;;2.58;1.75;;;;;;;19.93;32.30;97664.56;5129418;27;20027;-65
2022/01/01 05:07:07;;;;;;;2.90;1.77;;;;;;;19.93;32.28;97667.25;5129801;27;20163;-65
2022/01/01 05:09:32;;;;;;;2.30;1.85;;;;;;;19.94;32.25;97677.78;5131648;27;20044;-65
2022/01/01 05:11:58;;;;;;;2.47;2.00;;;;;;;19.93;32.09;97675.31;5132005;27;20062;-64
2022/01/01 05:14:24;;;;;;;2.03;1.65;;;;;;;19.91;32.20;97670.19;5132366;27;20027;-64
2022/01/01 05:16:51;;;;;;;2.50;1.70;;;;;;;19.94;32.18;97676.94;5132312;27;20066;-65
2022/01/01 05:19:18;;;;;;;3.30;2.17;;;;;;;19.92;32.16;97674.50;5131671;27;20051;-65
2022/01/01 05:21:44;;;;;;;3.42;2.10;;;;;;;19.93;32.09;97678.00;5132209;28;20118;-64
2022/01/01 05:24:09;;;;;;;1.95;1.60;;;;;;;19.94;32.19;97680.47;5132376;28;20118;-64
2022/01/01 05:26:35;;;;;;;2.22;1.77;;;;;;;19.93;31.99;97686.88;5130006;28;20026;-65
2022/01/01 05:29:01;;;;;;;3.25;1.85;;;;;;;19.95;32.02;97689.31;5132715;28;20063;-65
2022/01/01 05:31:26;;;;;;;2.90;2.00;;;;;;;19.94;32.22;97685.84;5132622;28;20039;-64
2022/01/01 05:33:52;;;;;;;2.75;2.10;;;;;;;19.96;31.93;97690.97;5131811;28;20038;-65
2022/01/01 05:36:19;;;;;;;2.22;1.80;;;;;;;19.96;31.99;97690.97;5132318;28;20043;-65
2022/01/01 05:38:45;;;;;;;4.18;1.73;;;;;;;19.96;32.18;97691.81;5113112;28;20031;-65
2022/01/01 05:41:12;;;;;;;2.70;2.00;;;;;;;19.99;32.06;97695.91;5132219;28;20035;-65
2022/01/01 05:43:37;;;;;;;2.83;1.90;;;;;;;20.00;32.26;97696.72;5115847;28;20028;-66
2022/01/01 05:46:03;;;;;;;2.15;1.75;;;;;;;20.01;32.22;97701.03;5112837;28;20100;-65
2022/01/01 05:48:30;;;;;;;2.17;1.77;;;;;;;20.00;32.08;97707.47;5132586;28;20039;-65
2022/01/01 05:50:56;;;;;;;2.38;1.65;;;;;;;20.01;32.08;97706.38;5115856;28;20043;-65
2022/01/01 05:53:22;;;;;;;3.55;1.80;;;;;;;20.00;31.97;97712.84;5123771;28;20401;-65
2022/01/01 05:55:48;;;;;;;2.97;2.05;;;;;;;20.01;31.96;97709.06;5132211;28;20035;-65
2022/01/01 05:58:14;;;;;;;2.00;1.65;;;;;;;20.03;31.92;97720.41;5130182;27;20038;-65
2022/01/01 06:00:40;;;;;;;2.47;1.50;;;;;;;20.02;32.16;97705.34;5132160;28;20039;-64
2022/01/01 06:03:06;;;;;;;2.67;1.83;;;;;;;20.05;32.31;97715.63;5119349;28;20031;-65
2022/01/01 06:05:32;;;;;;;2.95;1.98;;;;;;;20.04;32.06;97708.63;5111821;28;20107;-65
2022/01/01 06:07:58;;;;;;;2.90;2.25;;;;;;;20.02;32.32;97708.03;5121008;28;20552;-66
2022/01/01 06:10:25;;;;;;;2.50;1.80;;;;;;;20.02;32.14;97703.50;5132086;28;20035;-65
2022/01/01 06:12:50;;;;;;;2.42;1.90;;;;;;;20.03;32.25;97701.63;5130984;28;20027;-64
2022/01/01 06:15:16;;;;;;;2.70;2.08;;;;;;;20.02;32.18;97700.81;5132373;27;20095;-64
2022/01/01 06:17:41;;;;;;;2.47;1.92;;;;;;;20.02;32.26;97706.19;5130374;27;20038;-65
2022/01/01 06:20:07;;;;;;;3.33;2.10;;;;;;;20.03;32.45;97712.34;5136412;27;20110;-64
2022/01/01 06:22:33;;;;;;;2.85;2.03;;;;;;;20.04;32.52;97708.63;5134127;27;20087;-65
2022/01/01 06:24:58;;;;;;;3.67;2.22;;;;;;;20.04;32.45;97714.00;5134985;27;20072;-64
2022/01/01 06:27:24;;;;;;;2.40;1.90;;;;;;;20.05;32.50;97718.31;5134417;27;20049;-64
2022/01/01 06:29:50;;;;;;;3.58;2.35;;;;;;;20.05;32.46;97712.94;5135367;27;20070;-65
2022/01/01 06:32:16;;;;;;;2.75;2.00;;;;;;;20.05;32.63;97711.09;5134549;27;20039;-65
2022/01/01 06:34:41;;;;;;;2.30;1.77;;;;;;;20.05;32.46;97716.47;5135554;27;20126;-65
2022/01/01 06:37:07;;;;;;;2.58;1.73;;;;;;;20.04;32.70;97714.84;5130769;27;20035;-64
2022/01/01 06:39:32;;;;;;;2.88;1.60;;;;;;;20.03;32.57;97712.34;5134489;27;20079;-63
2022/01/01 06:41:57;;;;;;;3.58;2.20;;;;;;;20.01;32.63;97712.59;5134230;27;20406;-64
2022/01/01 06:44:23;;;;;;;2.45;1.88;;;;;;;20.02;32.48;97716.91;5134953;27;20035;-64
2022/01/01 06:46:48;;;;;;;2.05;1.85;;;;;;;20.01;32.55;97711.75;5133413;27;20113;-64
2022/01/01 06:49:14;;;;;;;2.17;1.73;;;;;;;20.02;32.74;97713.41;5134892;27;20050;-64
2022/01/01 06:51:40;;;;;;;3.55;2.17;;;;;;;20.02;32.78;97716.91;5135015;27;20577;-64
2022/01/01 06:54:06;;;;;;;2.30;1.70;;;;;;;20.02;33.01;97716.91;5115885;27;20031;-65
2022/01/01 06:56:31;;;;;;;3.10;1.88;;;;;;;20.04;32.64;97714.00;5116601;27;20183;-64
2022/01/01 06:58:57;;;;;;;4.53;2.20;;;;;;;20.02;32.68;97706.19;5135550;27;20035;-64
2022/01/01 07:01:22;;;;;;;2.40;1.80;;;;;;;20.03;32.78;97717.72;5134939;27;20027;-64
2022/01/01 07:03:48;;;;;;;2.58;2.38;;;;;;;20.05;32.76;97721.00;5115828;27;20498;-63
2022/01/01 07:06:13;;;;;;;3.30;1.65;;;;;;;20.05;32.89;97721.84;5130877;27;20027;-64
2022/01/01 07:08:39;;;;;;;3.08;1.85;;;;;;;20.05;32.76;97719.16;5117847;27;20439;-64
2022/01/01 07:11:04;;;;;;;3.00;1.70;;;;;;;20.07;32.72;97724.28;5114491;28;20032;-64
2022/01/01 07:13:30;;;;;;;2.70;1.92;;;;;;;20.09;32.62;97720.31;5132209;27;20117;-64
2022/01/01 07:15:56;;;;;;;4.70;2.08;;;;;;;20.10;32.63;97721.97;5134849;27;20113;-64
2022/01/01 07:18:22;;;;;;;3.10;1.88;;;;;;;20.11;32.75;97720.13;5132379;27;20108;-63
2022/01/01 07:20:47;;;;;;;2.45;1.67;;;;;;;20.12;32.57;97719.88;5132478;27;20477;-64
2022/01/01 07:23:13;;;;;;;2.40;1.77;;;;;;;20.12;32.75;97714.50;5132900;27;20032;-64
2022/01/01 07:25:38;;;;;;;2.38;1.67;;;;;;;20.14;32.38;97719.66;5134816;27;20027;-63
2022/01/01 07:28:04;;;;;;;2.70;2.00;;;;;;;20.14;32.48;97708.91;5134308;27;20062;-62
2022/01/01 07:30:29;;;;;;;2.22;1.48;;;;;;;20.12;32.47;97717.19;5134599;27;20031;-64
2022/01/01 07:32:55;;;;;;;2.53;1.92;;;;;;;20.15;32.43;97721.28;5131273;27;20045;-64
2022/01/01 07:35:22;;;;;;;4.10;2.00;;;;;;;20.13;32.49;97718.81;5133354;27;20039;-65
2022/01/01 07:37:49;;;;;;;7.40;1.92;;;;;;;20.14;32.35;97716.97;5134088;27;20037;-65
2022/01/01 07:40:16;;;;;;;2.75;1.88;;;;;;;20.17;32.43;97721.06;5134640;27;20501;-64
2022/01/01 07:42:43;;;;;;;2.58;2.10;;;;;;;20.15;32.26;97723.97;5130268;27;20053;-65
2022/01/01 07:45:10;;;;;;;3.00;1.85;;;;;;;20.12;32.27;97727.94;5134098;27;20038;-65
2022/01/01 07:47:35;;;;;;;2.58;1.92;;;;;;;20.12;32.32;97727.13;5127196;27;20505;-64
2022/01/01 07:50:02;;;;;;;3.85;1.85;;;;;;;20.10;32.38;97732.69;5121701;27;20043;-65
2022/01/01 07:52:27;;;;;;;2.50;1.58;;;;;;;20.11;32.33;97730.84;5129573;27;20036;-65
2022/01/01 07:54:53;;;;;;;2.10;1.80;;;;;;;20.11;32.29;97725.47;5134188;27;20050;-64
2022/01/01 07:57:18;;;;;;;2.15;1.70;;;;;;;20.11;32.04;97733.53;5130132;27;20038;-64
2022/01/01 07:59:44;;;;;;;2.65;2.05;;;;;;;20.10;32.37;97730.00;5134107;27;20031;-65
2022/01/01 08:02:09;;;;;;;2.22;1.75;;;;;;;20.09;32.32;97731.06;5131078;27;20481;-64
2022/01/01 08:04:35;;;;;;;2.70;1.83;;;;;;;20.12;32.12;97735.16;5132931;27;20062;-64
2022/01/01 08:07:03;;;;;;;2.80;1.92;;;;;;;20.10;32.18;97730.00;5132804;27;20027;-65
2022/01/01 08:09:29;;;;;;;3.28;2.22;;;;;;;20.10;32.25;97732.69;5125439;27;20403;-65
2022/01/01 08:11:54;;;;;;;2.10;1.80;;;;;;;20.08;32.12;97737.47;5113954;27;20175;-64
2022/01/01 08:14:21;;;;;;;2.35;1.80;;;;;;;20.08;32.08;97736.66;5131436;27;20099;-65
2022/01/01 08:17:03;;;;;;;2.35;1.63;;;;;;;20.08;32.21;97739.34;5132524;27;20031;-65
2022/01/01 08:19:29;;;;;;;3.95;2.20;;;;;;;20.08;32.08;97742.84;5130618;27;20467;-65
2022/01/01 08:21:56;;;;;;;3.95;1.63;;;;;;;20.10;32.23;97746.13;5133207;27;20031;-64
2022/01/01 08:24:22;;;;;;;3.10;1.75;;;;;;;20.09;32.10;97749.84;5133528;27;20031;-63
2022/01/01 08:26:48;;;;;;;2.55;1.85;;;;;;;20.10;32.25;97750.69;5131899;27;20038;-64
2022/01/01 08:29:14;;;;;;;2.58;1.77;;;;;;;20.11;32.24;97752.31;5133376;27;20486;-65
2022/01/01 08:31:40;;;;;;;2.80;1.90;;;;;;;20.11;32.18;97757.69;5131953;27;20042;-65
2022/01/01 08:34:05;;;;;;;2.35;1.80;;;;;;;20.13;32.18;97744.88;5133090;27;20393;-65
2022/01/01 08:36:31;;;;;;;2.10;1.67;;;;;;;20.13;32.18;97748.34;5133153;27;20113;-65
2022/01/01 08:38:56;;;;;;;3.42;1.88;;;;;;;20.13;31.87;97750.25;5131731;27;20035;-65
2022/01/01 08:41:22;;;;;;;3.42;1.92;;;;;;;20.11;32.24;97750.44;5131484;27;20549;-65
2022/01/01 08:43:47;;;;;;;2.80;2.03;;;;;;;20.09;31.92;97749.84;5132466;27;20504;-64
2022/01/01 08:46:13;;;;;;;2.33;1.85;;;;;;;20.09;31.95;97747.16;5133070;27;20058;-64
2022/01/01 08:48:40;;;;;;;2.45;1.75;;;;;;;20.08;32.01;97752.78;5115568;27;20062;-65
2022/01/01 08:51:12;;;;;;;2.47;1.90;;;;;;;20.09;32.02;97749.84;5114805;27;20031;-64
2022/01/01 08:53:38;;;;;;;3.45;1.60;;;;;;;20.07;32.05;97741.19;5125984;27;20057;-65
2022/01/01 08:56:07;;;;;;;3.08;2.20;;;;;;;20.08;32.12;97742.03;5132553;27;20070;-64
2022/01/01 08:58:33;;;;;;;3.42;2.25;;;;;;;20.07;32.16;97743.88;5129655;27;20034;-64
2022/01/01 09:00:59;;;;;;;2.65;1.60;;;;;;;20.08;31.99;97745.53;5130397;27;20027;-65
2022/01/01 09:03:25;;;;;;;3.05;1.73;;;;;;;20.07;31.98;97740.41;5130978;27;20031;-64
2022/01/01 09:05:50;;;;;;;3.03;1.70;;;;;;;20.09;31.79;97744.47;5124978;27;20063;-65
2022/01/01 09:08:16;;;;;;;2.90;2.03;;;;;;;20.09;31.85;97744.47;5129942;27;20610;-65
2022/01/01 09:10:41;;;;;;;3.30;1.70;;;;;;;20.08;31.79;97740.16;5131813;27;20558;-65
2022/01/01 09:13:07;;;;;;;2.95;1.80;;;;;;;20.10;31.95;97735.38;5131553;27;20088;-65
2022/01/01 09:15:32;;;;;;;2.55;1.70;;;;;;;20.10;31.93;97738.06;5132036;27;20046;-65
2022/01/01 09:17:58;;;;;;;2.20;1.90;;;;;;;20.10;31.92;97735.38;5130796;27;20089;-64
2022/01/01 09:20:23;;;;;;;2.88;2.10;;;;;;;20.10;31.78;97738.06;5130732;28;20035;-64
2022/01/01 09:22:49;;;;;;;2.63;1.98;;;;;;;20.11;31.97;97737.03;5132345;28;20031;-65
2022/01/01 09:25:14;;;;;;;2.95;1.77;;;;;;;20.12;31.63;97741.34;5132790;28;20068;-65
2022/01/01 09:27:40;;;;;;;4.03;1.63;;;;;;;20.12;31.67;97733.28;5131316;28;20405;-65
2022/01/01 09:30:06;;;;;;;2.72;1.70;;;;;;;20.12;31.93;97732.50;5132783;28;20058;-65
2022/01/01 09:32:32;;;;;;;2.22;1.63;;;;;;;20.11;31.96;97734.34;5125170;28;20398;-65
2022/01/01 09:35:00;;;;;;;2.05;1.67;;;;;;;20.11;31.78;97731.66;5111811;28;20693;-65
2022/01/01 09:37:26;;;;;;;2.28;1.58;;;;;;;20.12;31.93;97732.50;5120897;28;20117;-65
2022/01/01 09:39:51;;;;;;;2.47;1.75;;;;;;;20.10;31.86;97735.38;5132576;28;20438;-65
2022/01/01 09:42:18;;;;;;;2.13;1.73;;;;;;;20.11;31.92;97726.28;5125555;27;20147;-65
2022/01/01 09:44:44;;;;;;;2.70;1.90;;;;;;;20.11;31.73;97723.59;5111952;28;20042;-65
2022/01/01 09:47:10;;;;;;;1.95;1.42;;;;;;;20.12;31.62;97724.44;5129432;28;20039;-65
2022/01/01 09:49:36;;;;;;;2.22;1.60;;;;;;;20.12;31.64;97730.59;5130231;28;20031;-65
2022/01/01 09:52:01;;;;;;;2.38;1.65;;;;;;;20.11;31.39;97722.78;5133398;27;20073;-65
2022/01/01 09:54:30;;;;;;;2.58;1.73;;;;;;;20.10;31.71;97730.00;5136998;27;20077;-65
2022/01/01 09:56:56;;;;;;;5.82;1.88;;;;;;;20.10;31.64;97731.91;5136798;27;20027;-66
2022/01/01 09:59:22;;;;;;;2.03;1.70;;;;;;;20.08;31.54;97732.09;5136961;27;20408;-65
2022/01/01 10:01:47;;;;;;;2.90;1.70;;;;;;;20.07;31.39;97730.47;5132159;27;20394;-65
2022/01/01 10:04:14;;;;;;;2.67;1.70;;;;;;;20.07;31.73;97721.59;5116330;28;20070;-65
2022/01/01 10:06:41;;;;;;;2.22;1.70;;;;;;;20.07;31.73;97727.78;5115917;28;20069;-65
2022/01/01 10:09:09;;;;;;;2.42;1.77;;;;;;;20.06;31.52;97715.44;5134835;27;20034;-66
2022/01/01 10:11:36;;;;;;;2.28;1.50;;;;;;;20.07;31.33;97719.72;5131373;27;20039;-66
2022/01/01 10:14:07;;;;;;;3.08;1.60;;;;;;;20.04;31.23;97714.84;5135568;27;20080;-66
2022/01/01 10:16:44;;;;;;;5.40;1.77;;;;;;;20.04;31.35;97720.19;5136940;27;20030;-66
2022/01/01 10:19:10;;;;;;;2.03;1.63;;;;;;;20.03;31.43;97718.56;5135102;27;20055;-66
2022/01/01 10:21:40;;;;;;;2.60;1.27;;;;;;;20.02;31.56;97700.81;5116232;28;20088;-66
2022/01/01 10:24:12;;;;;;;2.17;1.42;;;;;;;20.02;31.48;97711.56;5117289;27;20473;-65
2022/01/01 10:29:31;;;;;;;3.58;1.50;;;;;;;20.01;31.22;97715.28;5136171;27;20038;-65
2022/01/01 10:32:10;;;;;;;1.67;1.13;;;;;;;19.99;31.48;97714.69;5135601;27;20084;-65
2022/01/01 10:34:44;;;;;;;2.03;1.45;;;;;;;19.99;31.35;97717.38;5136216;27;20084;-66
2022/01/01 10:37:11;;;;;;;1.73;1.23;;;;;;;19.99;31.49;97722.72;5136469;27;20473;-64
2022/01/01 10:39:52;;;;;;;2.33;1.50;;;;;;;19.99;31.42;97716.56;5136160;27;20039;-64
2022/01/01 10:42:19;;;;;;;3.30;1.17;;;;;;;19.98;31.50;97718.41;5134528;27;20501;-66
2022/01/01 10:44:50;;;;;;;2.92;1.58;;;;;;;19.96;31.38;97723.19;5134486;27;20473;-66
2022/01/01 10:47:21;;;;;;;2.00;1.33;;;;;;;19.95;31.51;97710.81;5131203;27;20041;-65
2022/01/01 10:52:28;;;;;;;1.58;1.10;;;;;;;19.95;31.65;97717.00;5123526;27;20058;-66
2022/01/01 10:55:21;;;;;;;2.20;0.98;;;;;;;19.93;31.46;97719.09;5134843;27;20059;-64
2022/01/01 10:58:02;;;;;;;1.67;1.20;;;;;;;19.94;31.52;97712.69;5112994;27;20042;-65
2022/01/01 11:00:27;;;;;;;;;;;;;;;19.90;31.41;97713.38;5116942;27;20034;-64
2022/01/01 11:02:57;;;;;;;1.80;1.00;;;;;;;19.92;31.61;97719.34;5125693;27;19916;-64
2022/01/01 11:05:41;;;;;;;2.13;1.55;;;;;;;19.63;30.38;97711.00;5134657;27;20553;-63
2022/01/01 11:08:08;;;;;;;2.55;1.63;;;;;;;19.17;29.95;97718.47;5135985;27;20478;-65
2022/01/01 11:10:35;;;;;;;2.63;1.65;;;;;;;18.76;30.24;97709.94;5128184;27;20034;-66
2022/01/01 11:13:02;;;;;;;2.33;1.30;;;;;;;18.63;31.32;97716.25;5118019;27;20027;-64
2022/01/01 11:15:28;;;;;;;3.25;1.13;;;;;;;18.74;31.55;97712.03;5115083;27;20057;-64
2022/01/01 11:17:56;;;;;;;1.45;1.00;;;;;;;18.87;31.80;97711.91;5124435;27;20043;-64
2022/01/01 11:20:23;;;;;;;1.42;1.10;;;;;;;19.03;31.92;97720.47;5113494;28;20452;-64
2022/01/01 11:22:49;;;;;;;1.55;0.95;;;;;;;19.12;31.75;97708.41;5121504;27;20187;-63
2022/01/01 11:25:16;;;;;;;2.35;1.10;;;;;;;19.25;31.61;97698.59;5118587;27;20095;-65
2022/01/01 11:27:43;;;;;;;1.70;1.02;;;;;;;19.31;31.61;97705.75;5135664;27;20034;-65
2022/01/01 11:30:11;;;;;;;1.58;1.00;;;;;;;19.40;31.34;97704.41;5135482;27;20118;-66
2022/01/01 11:32:39;;;;;;;1.55;1.05;;;;;;;19.45;31.44;97707.25;5132894;27;20039;-65
2022/01/01 11:35:09;;;;;;;1.25;0.80;;;;;;;19.50;31.45;97710.06;5134288;27;20033;-64
2022/01/01 11:37:59;;;;;;;2.25;0.95;;;;;;;19.54;31.39;97712.31;5130722;27;20046;-64
2022/01/01 11:40:26;;;;;;;1.40;1.02;;;;;;;19.58;31.46;97713.50;5133913;27;20031;-65
2022/01/01 11:42:51;;;;;;;2.00;0.95;;;;;;;19.61;31.34;97711.19;5117085;27;20023;-64